SKCL/CLO METAR and TAF weather

Enter ICAO airport designator
Station Type Date Time Source
SKCL METAR 2019/12/06 09:00 UTC NOAA

SKCL 060900Z 13003KT 9000 VCSH SCT020 SCT100 20/19 A3000 NOSIG RMK VCSH/NW


Station Type Date Time Source
SKCL Decoded METAR 2019/12/06 09:00 UTC NOAA

Cali / Alfonso Bonillaaragon, Colombia (SKCL) 03-33N 076-23W 969M
Dec 06, 2019 - 04:00 AM EST / 2019.12.06 0900 UTC
Wind: from the SE (130 degrees) at 3 MPH (3 KT):0
Visibility: 5 mile(s):0
Sky conditions: partly cloudy
Weather: showers in the vicinity
Temperature: 68 F (20 C)
Dew Point: 66 F (19 C)
Relative Humidity: 93%
Pressure (altimeter): 30 in. Hg (1015 hPa)
ob: SKCL 060900Z 13003KT 9000 VCSH SCT020 SCT100 20/19 A3000 NOSIG RMK VCSH/NW
cycle: 9

Station Type Date Time Source
SKCL TAF 2019/12/06 06:36 UTC NOAA

TAF SKCL 060430Z 0606/0706 VRB03KT 9999 FEW025 BKN200
TEMPO 0609/0612 5000 BR SCT015
BECMG 0616/0618 32010KT
TEMPO 0621/0623 6000 RA SCT020TCU
BECMG 0700/0702 03004KT TX32/0619Z TN19/0611Z

Example: see airport list